createdAt,value
2018-06-05T00:02:19.791Z,7.17
2018-06-05T00:04:47.905Z,7.03
2018-06-05T00:07:16.337Z,6.90
2018-06-05T00:09:49.370Z,6.50
2018-06-05T00:12:18.601Z,7.20
2018-06-05T00:14:46.686Z,7.70
2018-06-05T00:17:14.789Z,6.90
2018-06-05T00:19:43.609Z,6.40
2018-06-05T00:22:11.725Z,7.90
2018-06-05T00:24:39.976Z,7.00
2018-06-05T00:27:09.074Z,7.60
2018-06-05T00:29:37.781Z,7.77
2018-06-05T00:32:06.521Z,6.93
2018-06-05T00:34:34.709Z,7.30
2018-06-05T00:37:03.587Z,7.93
2018-06-05T00:39:31.815Z,8.57
2018-06-05T00:41:59.952Z,7.70
2018-06-05T00:44:32.829Z,7.53
2018-06-05T00:47:00.913Z,8.77
2018-06-05T00:49:30.271Z,8.23
2018-06-05T00:52:09.929Z,8.27
2018-06-05T00:54:37.991Z,7.93
2018-06-05T00:57:06.186Z,8.40
2018-06-05T00:59:34.421Z,6.90
2018-06-05T01:02:02.582Z,8.43
2018-06-05T01:04:32.183Z,7.77
2018-06-05T01:07:00.320Z,8.13
2018-06-05T01:09:29.481Z,7.87
2018-06-05T01:11:57.661Z,8.03
2018-06-05T01:14:25.840Z,7.83
2018-06-05T01:16:54.008Z,8.20
2018-06-05T01:19:22.156Z,9.30
2018-06-05T01:21:50.356Z,9.60
2018-06-05T01:24:18.427Z,9.90
2018-06-05T01:26:46.530Z,10.03
2018-06-05T01:29:14.628Z,8.33
2018-06-05T01:31:42.739Z,9.80
2018-06-05T01:34:11.392Z,9.70
2018-06-05T01:36:39.644Z,9.70
2018-06-05T01:39:09.559Z,9.80
2018-06-05T01:41:38.150Z,10.67
2018-06-05T01:44:06.245Z,10.77
2018-06-05T01:46:34.389Z,10.50
2018-06-05T01:49:02.558Z,9.40
2018-06-05T01:51:30.730Z,10.10
2018-06-05T01:53:58.857Z,9.37
2018-06-05T01:56:27.050Z,9.50
2018-06-05T01:58:55.163Z,10.87
2018-06-05T02:01:23.225Z,10.80
2018-06-05T02:03:51.379Z,9.57
2018-06-05T02:06:19.513Z,10.67
2018-06-05T02:08:47.682Z,9.70
2018-06-05T02:11:16.180Z,10.70
2018-06-05T02:13:44.311Z,9.93
2018-06-05T02:16:12.557Z,10.53
2018-06-05T02:18:40.760Z,10.00
2018-06-05T02:21:08.870Z,12.00
2018-06-05T02:23:37.063Z,11.03
2018-06-05T02:26:05.202Z,10.50
2018-06-05T02:28:33.380Z,12.00
2018-06-05T02:31:01.491Z,11.50
2018-06-05T02:33:29.765Z,11.63
2018-06-05T02:35:58.018Z,11.77
2018-06-05T02:38:26.069Z,11.67
2018-06-05T02:40:54.346Z,12.00
2018-06-05T02:43:22.632Z,11.40
2018-06-05T02:45:51.029Z,11.33
2018-06-05T02:48:19.516Z,12.47
2018-06-05T02:50:47.654Z,11.00
2018-06-05T02:53:15.812Z,11.17
2018-06-05T02:55:43.925Z,13.07
2018-06-05T02:58:12.108Z,10.67
2018-06-05T03:00:40.491Z,11.20
2018-06-05T03:03:08.674Z,12.57
2018-06-05T03:05:37.005Z,12.30
2018-06-05T03:08:05.280Z,12.00
2018-06-05T03:10:33.600Z,11.40
2018-06-05T03:13:01.771Z,11.40
2018-06-05T03:15:30.931Z,12.73
2018-06-05T03:17:59.159Z,12.80
2018-06-05T03:20:27.377Z,12.30
2018-06-05T03:22:55.679Z,12.10
2018-06-05T03:25:23.979Z,12.77
2018-06-05T03:27:52.093Z,11.30
2018-06-05T03:30:20.464Z,13.13
2018-06-05T03:32:48.659Z,13.27
2018-06-05T03:35:16.837Z,12.60
2018-06-05T03:37:44.993Z,12.83
2018-06-05T03:40:13.069Z,11.33
2018-06-05T03:42:41.265Z,12.63
2018-06-05T03:45:09.442Z,11.23
2018-06-05T03:47:37.679Z,13.20
2018-06-05T03:50:05.806Z,13.37
2018-06-05T03:52:33.873Z,12.63
2018-06-05T03:55:03.131Z,12.60
2018-06-05T03:57:31.331Z,12.13
2018-06-05T03:59:59.531Z,12.17
2018-06-05T04:02:27.646Z,13.60
2018-06-05T04:04:55.685Z,12.93
2018-06-05T04:07:26.209Z,11.93
2018-06-05T04:09:55.093Z,13.00
2018-06-05T04:12:23.251Z,12.20
2018-06-05T04:14:51.468Z,11.83
2018-06-05T04:17:19.630Z,12.87
2018-06-05T04:19:47.887Z,12.70
2018-06-05T04:22:16.134Z,12.27
2018-06-05T04:24:45.201Z,13.00
2018-06-05T04:27:13.418Z,13.47
2018-06-05T04:29:41.736Z,11.97
2018-06-05T04:32:10.048Z,13.57
2018-06-05T04:34:38.265Z,13.40
2018-06-05T04:37:06.533Z,11.93
2018-06-05T04:39:34.886Z,13.40
2018-06-05T04:42:03.100Z,12.20
2018-06-05T04:44:31.337Z,11.77
2018-06-05T04:46:59.508Z,14.67
2018-06-05T04:49:28.269Z,12.93
2018-06-05T04:51:56.485Z,13.87
2018-06-05T04:54:24.685Z,13.00
2018-06-05T04:56:52.873Z,13.50
2018-06-05T04:59:21.279Z,13.30
2018-06-05T05:01:49.714Z,12.97
2018-06-05T05:04:17.965Z,12.00
2018-06-05T05:06:46.292Z,13.37
2018-06-05T05:09:14.551Z,12.17
2018-06-05T05:11:42.976Z,14.70
2018-06-05T05:14:11.402Z,13.20
2018-06-05T05:16:39.474Z,13.67
2018-06-05T05:19:07.694Z,12.50
2018-06-05T05:21:36.150Z,13.20
2018-06-05T05:24:04.765Z,13.03
2018-06-05T05:26:33.559Z,13.47
2018-06-05T05:29:01.805Z,14.70
2018-06-05T05:31:30.056Z,14.00
2018-06-05T05:33:58.273Z,13.57
2018-06-05T05:36:26.654Z,13.10
2018-06-05T05:38:57.014Z,14.53
2018-06-05T05:41:25.230Z,14.27
2018-06-05T05:43:53.874Z,14.40
2018-06-05T05:46:22.199Z,14.93
2018-06-05T05:48:50.656Z,14.50
2018-06-05T05:51:18.952Z,13.97
2018-06-05T05:53:47.715Z,14.90
2018-06-05T05:56:16.190Z,13.90
2018-06-05T05:58:44.417Z,13.80
2018-06-05T06:01:12.690Z,13.70
2018-06-05T06:03:40.837Z,13.67
2018-06-05T06:06:09.943Z,15.30
2018-06-05T06:08:38.859Z,14.53
2018-06-05T06:11:07.170Z,14.53
2018-06-05T06:13:35.868Z,14.70
2018-06-05T06:16:04.226Z,15.30
2018-06-05T06:18:32.517Z,15.20
2018-06-05T06:21:00.685Z,14.70
2018-06-05T06:23:28.903Z,13.77
2018-06-05T06:25:57.188Z,13.00
2018-06-05T06:28:25.555Z,12.93
2018-06-05T06:30:53.698Z,13.20
2018-06-05T06:33:21.879Z,14.60
2018-06-05T06:35:50.231Z,13.70
2018-06-05T06:38:18.312Z,12.03
2018-06-05T06:40:46.499Z,12.80
2018-06-05T06:43:14.634Z,12.60
2018-06-05T06:45:42.759Z,12.60
2018-06-05T06:48:11.338Z,11.73
2018-06-05T06:50:40.218Z,11.87
2018-06-05T06:53:08.469Z,12.77
2018-06-05T06:55:40.861Z,11.70
2018-06-05T06:58:09.057Z,11.63
2018-06-05T07:00:37.206Z,11.90
2018-06-05T07:03:05.443Z,11.70
2018-06-05T07:05:33.667Z,12.27
2018-06-05T07:08:01.992Z,12.50
2018-06-05T07:10:30.169Z,13.07
2018-06-05T07:12:58.373Z,11.70
2018-06-05T07:15:26.464Z,12.70
2018-06-05T07:17:54.629Z,14.07
2018-06-05T07:20:22.888Z,10.80
2018-06-05T07:22:51.130Z,13.57
2018-06-05T07:25:19.352Z,13.03
2018-06-05T07:27:47.641Z,14.30
2018-06-05T07:30:15.860Z,12.40
2018-06-05T07:32:44.050Z,13.00
2018-06-05T07:35:12.267Z,14.63
2018-06-05T07:37:40.523Z,13.43
2018-06-05T07:40:08.925Z,14.73
2018-06-05T07:42:37.232Z,15.47
2018-06-05T07:45:05.509Z,13.53
2018-06-05T07:47:33.707Z,14.73
2018-06-05T07:50:01.995Z,15.77
2018-06-05T07:52:30.970Z,15.27
2018-06-05T07:54:59.166Z,15.03
2018-06-05T07:57:27.408Z,13.20
2018-06-05T07:59:55.607Z,15.00
2018-06-05T08:02:23.869Z,14.00
2018-06-05T08:04:52.079Z,13.93
2018-06-05T08:07:20.228Z,14.00
2018-06-05T08:09:48.614Z,13.20
2018-06-05T08:12:16.828Z,14.27
2018-06-05T08:14:45.466Z,14.90
2018-06-05T08:17:13.654Z,13.50
2018-06-05T08:19:42.068Z,13.87
2018-06-05T08:22:11.325Z,12.90
2018-06-05T08:24:39.486Z,12.67
2018-06-05T08:27:07.661Z,13.23
2018-06-05T08:29:36.355Z,12.37
2018-06-05T08:32:09.338Z,12.80
2018-06-05T08:34:37.519Z,13.90
2018-06-05T08:37:05.751Z,12.90
2018-06-05T08:39:33.927Z,12.73
2018-06-05T08:42:02.367Z,14.00
2018-06-05T08:44:30.781Z,13.60
2018-06-05T08:46:58.974Z,13.07
2018-06-05T08:49:27.214Z,12.07
2018-06-05T08:51:55.389Z,13.30
2018-06-05T08:54:23.599Z,12.43
2018-06-05T08:56:51.688Z,12.97
2018-06-05T08:59:19.913Z,13.13
2018-06-05T09:01:48.323Z,13.37
2018-06-05T09:04:16.474Z,13.67
2018-06-05T09:06:44.782Z,13.30
2018-06-05T09:09:13.668Z,13.27
2018-06-05T09:11:42.162Z,12.90
2018-06-05T09:14:10.587Z,12.83
2018-06-05T09:16:38.830Z,12.30
2018-06-05T09:19:07.012Z,12.37
2018-06-05T09:21:35.184Z,13.60
2018-06-05T09:24:03.431Z,12.73
2018-06-05T09:26:31.609Z,12.47
2018-06-05T09:28:59.837Z,12.33
2018-06-05T09:31:28.014Z,13.10
2018-06-05T09:33:56.220Z,12.23
2018-06-05T09:36:24.371Z,13.70
2018-06-05T09:38:52.974Z,11.87
2018-06-05T09:41:21.112Z,13.57
2018-06-05T09:43:49.375Z,12.63
2018-06-05T09:46:18.327Z,12.10
2018-06-05T09:48:46.645Z,12.13
2018-06-05T09:51:14.847Z,12.63
2018-06-05T09:53:43.041Z,11.83
2018-06-05T09:56:11.248Z,12.33
2018-06-05T09:58:39.625Z,12.40
2018-06-05T10:01:07.754Z,13.03
2018-06-05T10:03:36.003Z,12.30
2018-06-05T10:06:04.315Z,12.03
2018-06-05T10:08:32.772Z,12.50
2018-06-05T10:11:01.074Z,13.10
2018-06-05T10:13:29.781Z,12.30
2018-06-05T10:15:57.957Z,12.93
2018-06-05T10:18:26.159Z,12.57
2018-06-05T10:20:54.876Z,12.53
2018-06-05T10:23:23.073Z,12.40
2018-06-05T10:25:51.714Z,12.17
2018-06-05T10:28:19.957Z,12.63
2018-06-05T10:30:48.271Z,11.97
2018-06-05T10:33:16.479Z,12.63
2018-06-05T10:35:44.769Z,12.10
2018-06-05T10:38:12.917Z,11.90
2018-06-05T10:40:41.167Z,11.27
2018-06-05T10:43:09.342Z,12.27
2018-06-05T10:45:37.465Z,11.27
2018-06-05T10:48:05.741Z,10.57
2018-06-05T10:50:38.051Z,11.47
2018-06-05T10:53:07.664Z,12.13
2018-06-05T10:55:36.590Z,10.93
2018-06-05T10:58:04.853Z,10.30
2018-06-05T11:00:33.073Z,9.80
2018-06-05T11:03:01.744Z,9.23
2018-06-05T11:05:30.144Z,11.00
2018-06-05T11:07:58.511Z,9.90
2018-06-05T11:10:26.861Z,9.43
2018-06-05T11:12:55.215Z,9.60
2018-06-05T11:15:23.394Z,8.70
2018-06-05T11:17:51.573Z,10.63
2018-06-05T11:20:19.927Z,9.23
2018-06-05T11:22:48.074Z,9.10
2018-06-05T11:25:16.465Z,9.47
2018-06-05T11:27:45.222Z,9.70
2018-06-05T11:30:13.466Z,8.10
2018-06-05T11:32:41.728Z,8.90
2018-06-05T11:35:09.953Z,8.10
2018-06-05T11:37:38.090Z,9.20
2018-06-05T11:40:06.362Z,7.97
2018-06-05T11:42:34.560Z,8.73
2018-06-05T11:45:02.987Z,9.27
2018-06-05T11:47:31.190Z,7.87
2018-06-05T11:50:00.050Z,8.57
2018-06-05T11:52:28.569Z,8.33
2018-06-05T11:54:56.754Z,8.40
2018-06-05T11:57:24.977Z,8.50
2018-06-05T11:59:53.302Z,9.27
2018-06-05T12:02:21.457Z,8.40
2018-06-05T12:04:49.629Z,9.07
2018-06-05T12:07:17.819Z,8.63
2018-06-05T12:09:46.039Z,9.37
2018-06-05T12:12:14.276Z,9.23
2018-06-05T12:14:42.498Z,8.00
2018-06-05T12:17:10.728Z,8.70
2018-06-05T12:19:38.880Z,8.87
2018-06-05T12:22:07.674Z,8.40
2018-06-05T12:24:35.912Z,8.17
2018-06-05T12:27:04.394Z,8.50
2018-06-05T12:29:37.110Z,9.20
2018-06-05T12:32:06.923Z,8.70
2018-06-05T12:34:35.298Z,8.23
2018-06-05T12:37:03.479Z,9.13
2018-06-05T12:39:31.649Z,9.30
2018-06-05T12:41:59.940Z,8.97
2018-06-05T12:44:28.311Z,9.13
2018-06-05T12:46:56.418Z,9.40
2018-06-05T12:49:24.587Z,10.07
2018-06-05T12:51:52.715Z,9.80
2018-06-05T12:54:21.245Z,10.30
2018-06-05T12:56:49.716Z,9.60
2018-06-05T12:59:17.928Z,9.10
2018-06-05T13:01:46.076Z,9.23
2018-06-05T13:04:14.754Z,9.67
2018-06-05T13:06:42.922Z,9.70
2018-06-05T13:09:11.876Z,10.03
2018-06-05T13:11:40.388Z,9.40
2018-06-05T13:14:09.156Z,9.90
2018-06-05T13:16:37.505Z,9.23
2018-06-05T13:19:05.625Z,10.37
2018-06-05T13:21:33.837Z,9.87
2018-06-05T13:24:02.075Z,9.40
2018-06-05T13:26:30.258Z,9.67
2018-06-05T13:28:58.525Z,8.73
2018-06-05T13:31:26.739Z,8.60
2018-06-05T13:33:54.964Z,10.33
2018-06-05T13:36:23.120Z,8.83
2018-06-05T13:38:51.252Z,8.87
2018-06-05T13:41:19.507Z,8.87
2018-06-05T13:43:47.884Z,9.17
2018-06-05T13:46:16.222Z,8.80
2018-06-05T13:48:44.418Z,9.57
2018-06-05T13:51:13.270Z,9.60
2018-06-05T13:53:41.545Z,8.40
2018-06-05T13:56:09.777Z,9.17
2018-06-05T13:58:38.010Z,9.70
2018-06-05T14:01:06.233Z,9.30
2018-06-05T14:03:34.651Z,9.87
2018-06-05T14:06:03.287Z,8.97
2018-06-05T14:08:31.536Z,8.93
2018-06-05T14:11:00.038Z,9.83
2018-06-05T14:13:28.222Z,9.30
2018-06-05T14:15:56.631Z,9.73
2018-06-05T14:18:24.842Z,8.90
2018-06-05T14:20:53.098Z,9.13
2018-06-05T14:23:21.293Z,10.07
2018-06-05T14:25:49.497Z,9.60
2018-06-05T14:28:18.032Z,10.47
2018-06-05T14:30:46.272Z,9.10
2018-06-05T14:33:14.708Z,9.50
2018-06-05T14:35:43.638Z,9.30
2018-06-05T14:38:12.574Z,9.30
2018-06-05T14:40:40.751Z,9.83
2018-06-05T14:43:08.991Z,9.20
2018-06-05T14:45:37.116Z,8.30
2018-06-05T14:48:05.329Z,9.30
2018-06-05T14:50:33.684Z,9.03
2018-06-05T14:53:02.032Z,8.17
2018-06-05T14:55:30.798Z,8.30
2018-06-05T14:57:59.105Z,8.87
2018-06-05T15:00:27.322Z,9.70
2018-06-05T15:02:55.955Z,9.47
2018-06-05T15:05:24.175Z,8.93
2018-06-05T15:07:52.374Z,8.77
2018-06-05T15:10:21.080Z,8.57
2018-06-05T15:12:49.302Z,7.93
2018-06-05T15:15:17.449Z,7.73
2018-06-05T15:17:45.769Z,9.67
2018-06-05T15:20:13.938Z,9.70
2018-06-05T15:22:42.105Z,8.60
2018-06-05T15:25:10.286Z,8.30
2018-06-05T15:27:38.522Z,7.27
2018-06-05T15:30:06.686Z,7.87
2018-06-05T15:32:35.017Z,7.37
2018-06-05T15:35:03.308Z,7.20
2018-06-05T15:37:31.598Z,8.30
2018-06-05T15:40:00.153Z,7.83
2018-06-05T15:42:28.327Z,8.80
2018-06-05T15:44:56.641Z,7.23
2018-06-05T15:47:25.367Z,7.00
2018-06-05T15:49:53.562Z,7.77
2018-06-05T15:52:21.816Z,7.03
2018-06-05T15:54:50.026Z,7.80
2018-06-05T15:57:18.533Z,7.53
2018-06-05T15:59:46.759Z,7.60
2018-06-05T16:02:14.910Z,7.40
2018-06-05T16:04:43.535Z,7.30
2018-06-05T16:07:11.776Z,7.57
2018-06-05T16:09:39.952Z,7.40
2018-06-05T16:12:08.297Z,6.17
2018-06-05T16:14:36.742Z,7.40
2018-06-05T16:17:05.062Z,7.87
2018-06-05T16:19:33.271Z,7.03
2018-06-05T16:22:01.508Z,7.00
2018-06-05T16:24:29.784Z,6.93
2018-06-05T16:26:58.062Z,7.27
2018-06-05T16:29:26.733Z,7.40
2018-06-05T16:31:55.079Z,7.07
2018-06-05T16:34:23.222Z,7.60
2018-06-05T16:36:51.766Z,7.00
2018-06-05T16:39:19.919Z,7.10
2018-06-05T16:41:48.068Z,7.20
2018-06-05T16:44:16.243Z,7.40
2018-06-05T16:46:44.420Z,7.23
2018-06-05T16:49:12.814Z,7.17
2018-06-05T16:51:41.286Z,7.77
2018-06-05T16:54:11.179Z,6.40
2018-06-05T16:56:39.471Z,6.33
2018-06-05T16:59:07.680Z,6.50
2018-06-05T17:01:35.920Z,6.73
2018-06-05T17:04:04.354Z,6.80
2018-06-05T17:06:32.578Z,7.00
2018-06-05T17:09:00.827Z,6.57
2018-06-05T17:11:30.255Z,6.67
2018-06-05T17:13:58.482Z,6.53
2018-06-05T17:16:26.736Z,7.10
2018-06-05T17:18:54.886Z,6.07
2018-06-05T17:21:23.146Z,6.60
2018-06-05T17:23:52.147Z,6.27
2018-06-05T17:26:20.318Z,6.97
2018-06-05T17:28:48.597Z,5.80
2018-06-05T17:31:17.299Z,6.57
2018-06-05T17:33:45.888Z,6.80
2018-06-05T17:36:14.359Z,6.07
2018-06-05T17:38:42.706Z,6.13
2018-06-05T17:41:11.051Z,6.07
2018-06-05T17:43:39.288Z,5.47
2018-06-05T17:46:07.614Z,5.63
2018-06-05T17:48:36.381Z,5.90
2018-06-05T17:51:04.870Z,5.00
2018-06-05T17:53:33.120Z,5.70
2018-06-05T17:56:01.589Z,5.80
2018-06-05T17:58:29.842Z,5.17
2018-06-05T18:00:58.222Z,6.03
2018-06-05T18:03:26.547Z,6.50
2018-06-05T18:05:54.865Z,5.50
2018-06-05T18:08:23.245Z,5.80
2018-06-05T18:10:51.700Z,6.33
2018-06-05T18:13:20.180Z,5.57
2018-06-05T18:15:48.892Z,5.90
2018-06-05T18:18:17.152Z,5.10
2018-06-05T18:20:46.399Z,5.53
2018-06-05T18:23:14.836Z,5.50
2018-06-05T18:25:43.308Z,6.03
2018-06-05T18:28:11.876Z,6.10
2018-06-05T18:30:40.726Z,6.43
2018-06-05T18:33:09.351Z,5.97
2018-06-05T18:35:40.116Z,5.80
2018-06-05T18:38:15.717Z,6.00
2018-06-05T18:40:44.950Z,5.63
2018-06-05T18:43:33.904Z,6.10
2018-06-05T18:46:02.738Z,5.70
2018-06-05T18:57:55.647Z,6.23
2018-06-05T19:00:45.856Z,6.23
2018-06-05T19:03:14.098Z,6.10
2018-06-05T19:05:42.758Z,6.53
2018-06-05T19:08:11.143Z,7.27
2018-06-05T19:10:39.826Z,7.03
2018-06-05T19:13:08.252Z,6.60
2018-06-05T19:15:36.684Z,7.03
2018-06-05T19:18:05.590Z,7.90
2018-06-05T19:20:34.058Z,7.17
2018-06-05T19:23:02.331Z,6.97
2018-06-05T19:25:30.848Z,6.87
2018-06-05T19:27:59.275Z,7.60
2018-06-05T19:30:27.802Z,7.33
2018-06-05T19:32:56.070Z,6.60
2018-06-05T19:35:24.415Z,8.23
2018-06-05T19:37:52.949Z,8.13
2018-06-05T19:40:21.555Z,7.67
2018-06-05T19:42:49.726Z,7.33
2018-06-05T19:45:18.022Z,8.03
2018-06-05T19:47:46.422Z,7.00
2018-06-05T19:50:14.736Z,7.30
2018-06-05T19:52:42.980Z,7.97
2018-06-05T19:55:11.349Z,7.90
2018-06-05T19:57:39.743Z,7.57
2018-06-05T20:00:08.009Z,7.93
2018-06-05T20:02:36.380Z,7.83
2018-06-05T20:05:04.794Z,8.23
2018-06-05T20:07:33.024Z,8.23
2018-06-05T20:10:01.290Z,7.70
2018-06-05T20:12:29.608Z,8.70
2018-06-05T20:14:58.051Z,8.70
2018-06-05T20:17:26.301Z,7.97
2018-06-05T20:19:54.517Z,8.43
2018-06-05T20:22:23.045Z,9.13
2018-06-05T20:24:51.318Z,8.27
2018-06-05T20:27:19.619Z,9.37
2018-06-05T20:29:48.378Z,7.93
2018-06-05T20:32:16.804Z,8.53
2018-06-05T20:34:45.066Z,8.30
2018-06-05T20:37:13.299Z,8.30
2018-06-05T20:39:41.586Z,7.93
2018-06-05T20:42:09.844Z,9.00
2018-06-05T20:44:38.056Z,9.80
2018-06-05T20:47:06.262Z,8.80
2018-06-05T20:49:34.683Z,8.23
2018-06-05T20:52:03.036Z,8.43
2018-06-05T20:54:31.203Z,8.33
2018-06-05T20:56:59.649Z,9.57
2018-06-05T20:59:27.960Z,9.07
2018-06-05T21:01:56.125Z,9.57
2018-06-05T21:04:24.265Z,7.20
2018-06-05T21:06:53.041Z,9.30
2018-06-05T21:09:21.212Z,8.50
2018-06-05T21:11:49.784Z,8.43
2018-06-05T21:14:18.095Z,8.43
2018-06-05T21:16:46.382Z,8.53
2018-06-05T21:19:14.663Z,8.90
2018-06-05T21:21:42.385Z,8.70
2018-06-05T21:24:10.798Z,9.13
2018-06-05T21:26:39.059Z,7.47
2018-06-05T21:29:07.271Z,8.10
2018-06-05T21:31:35.445Z,8.80
2018-06-05T21:34:03.703Z,8.67
2018-06-05T21:36:32.017Z,7.97
2018-06-05T21:39:08.738Z,8.97
2018-06-05T21:41:38.623Z,9.70
2018-06-05T21:44:06.867Z,9.10
2018-06-05T21:46:36.028Z,10.53
2018-06-05T21:49:04.530Z,9.37
2018-06-05T21:51:33.064Z,9.10
2018-06-05T21:54:06.830Z,8.60
2018-06-05T21:56:35.267Z,9.83
2018-06-05T21:59:04.050Z,7.83
2018-06-05T22:01:32.555Z,9.43
2018-06-05T22:04:00.893Z,9.00
2018-06-05T22:06:29.178Z,9.37
2018-06-05T22:09:00.881Z,8.77
2018-06-05T22:11:29.248Z,8.87
2018-06-05T22:13:58.404Z,8.63
2018-06-05T22:16:26.720Z,9.50
2018-06-05T22:18:55.456Z,8.57
2018-06-05T22:21:23.625Z,8.70
2018-06-05T22:23:58.450Z,9.40
2018-06-05T22:26:26.613Z,9.20
2018-06-05T22:28:54.919Z,9.33
2018-06-05T22:31:23.193Z,9.37
2018-06-05T22:33:51.454Z,9.83
2018-06-05T22:36:20.479Z,10.20
2018-06-05T22:38:48.718Z,9.60
2018-06-05T22:41:17.512Z,10.10
2018-06-05T22:43:52.400Z,9.30
2018-06-05T22:46:20.516Z,8.80
2018-06-05T22:48:48.809Z,9.70
2018-06-05T22:51:17.235Z,9.83
2018-06-05T22:53:46.039Z,9.90
2018-06-05T22:56:14.847Z,9.17
2018-06-05T22:58:43.157Z,9.00
2018-06-05T23:01:12.847Z,8.33
2018-06-05T23:03:41.950Z,9.70
2018-06-05T23:06:10.176Z,9.43
2018-06-05T23:08:38.322Z,9.97
2018-06-05T23:11:06.455Z,9.77
2018-06-05T23:13:35.130Z,9.70
2018-06-05T23:16:04.112Z,10.40
2018-06-05T23:18:39.663Z,9.40
2018-06-05T23:21:09.427Z,9.50
2018-06-05T23:23:42.578Z,9.93
2018-06-05T23:26:11.017Z,9.87
2018-06-05T23:28:39.303Z,10.93
2018-06-05T23:31:07.510Z,10.20
2018-06-05T23:33:40.057Z,10.30
2018-06-05T23:36:08.223Z,10.77
2018-06-05T23:38:36.536Z,9.60
2018-06-05T23:41:05.056Z,11.60
2018-06-05T23:43:34.542Z,10.70
2018-06-05T23:46:02.806Z,10.70
2018-06-05T23:48:31.354Z,10.33
2018-06-05T23:50:59.485Z,11.63
2018-06-05T23:53:28.962Z,10.50
2018-06-05T23:55:57.143Z,10.90
2018-06-05T23:58:25.389Z,10.20
